createdAt,value
2023-03-24T00:02:11.151Z,12.40
2023-03-24T00:05:36.552Z,12.32
2023-03-24T00:08:58.364Z,12.34
2023-03-24T00:12:20.214Z,12.34
2023-03-24T00:15:42.347Z,12.31
2023-03-24T00:19:14.807Z,12.36
2023-03-24T00:22:42.119Z,12.38
2023-03-24T00:26:15.176Z,12.35
2023-03-24T00:29:38.133Z,12.39
2023-03-24T00:33:01.838Z,12.40
2023-03-24T00:36:28.870Z,12.35
2023-03-24T00:39:53.122Z,12.44
2023-03-24T00:43:15.195Z,12.45
2023-03-24T00:46:38.935Z,12.45
2023-03-24T00:50:01.914Z,12.39
2023-03-24T00:53:29.032Z,12.45
2023-03-24T00:56:55.697Z,12.48
2023-03-24T01:00:26.129Z,12.53
2023-03-24T01:03:50.539Z,12.47
2023-03-24T01:07:18.167Z,12.54
2023-03-24T01:10:42.650Z,12.43
2023-03-24T01:14:08.560Z,12.36
2023-03-24T01:17:30.849Z,12.44
2023-03-24T01:20:54.165Z,12.44
2023-03-24T01:24:25.747Z,12.44
2023-03-24T01:27:49.586Z,12.43
2023-03-24T01:31:12.262Z,12.46
2023-03-24T01:34:34.935Z,12.47
2023-03-24T01:37:58.133Z,12.51
2023-03-24T01:41:23.032Z,12.41
2023-03-24T01:45:01.935Z,12.38
2023-03-24T01:48:42.998Z,12.44
2023-03-24T01:52:13.986Z,12.48
2023-03-24T01:55:46.799Z,12.56
2023-03-24T01:59:24.918Z,12.53
2023-03-24T02:03:18.512Z,12.60
2023-03-24T02:06:53.947Z,12.59
2023-03-24T02:10:21.907Z,12.65
2023-03-24T02:13:44.773Z,12.66
2023-03-24T02:17:54.543Z,12.72
2023-03-24T02:22:08.067Z,12.72
2023-03-24T02:26:08.854Z,12.82
2023-03-24T02:29:59.852Z,12.92
2023-03-24T02:34:28.591Z,12.89
2023-03-24T02:38:53.529Z,12.95
2023-03-24T02:42:26.405Z,12.92
2023-03-24T02:46:23.150Z,12.95
2023-03-24T02:50:18.407Z,12.95
2023-03-24T02:54:16.472Z,12.98
2023-03-24T02:57:54.843Z,12.98
2023-03-24T03:01:54.725Z,12.98
2023-03-24T03:05:42.047Z,13.01
2023-03-24T03:09:12.074Z,13.00
2023-03-24T03:12:38.593Z,13.05
2023-03-24T03:16:10.205Z,13.14
2023-03-24T03:19:53.694Z,13.15
2023-03-24T03:23:41.058Z,13.18
2023-03-24T03:27:19.839Z,13.13
2023-03-24T03:30:49.631Z,13.09
2023-03-24T03:34:43.999Z,13.13
2023-03-24T03:38:29.335Z,13.07
2023-03-24T03:41:53.990Z,13.05
2023-03-24T03:45:16.182Z,13.14
2023-03-24T03:48:40.507Z,13.13
2023-03-24T03:52:03.154Z,13.00
2023-03-24T03:55:25.473Z,13.13
2023-03-24T03:58:49.094Z,13.13
2023-03-24T04:02:29.310Z,13.10
2023-03-24T04:06:21.332Z,13.10
2023-03-24T04:10:15.333Z,13.16
2023-03-24T04:14:02.542Z,13.11
2023-03-24T04:18:04.533Z,13.11
2023-03-24T04:22:24.319Z,13.18
2023-03-24T04:26:54.579Z,13.20
2023-03-24T04:30:50.387Z,13.28
2023-03-24T04:34:50.728Z,13.23
2023-03-24T04:38:36.256Z,13.28
2023-03-24T04:42:24.120Z,13.28
2023-03-24T04:45:58.141Z,13.18
2023-03-24T04:49:28.804Z,13.18
2023-03-24T04:53:09.672Z,13.13
2023-03-24T04:56:47.667Z,13.22
2023-03-24T05:00:46.602Z,13.25
2023-03-24T05:04:23.236Z,13.22
2023-03-24T05:07:45.052Z,13.22
2023-03-24T05:11:09.916Z,13.18
2023-03-24T05:14:35.332Z,13.22
2023-03-24T05:18:01.215Z,13.23
2023-03-24T05:21:33.011Z,13.17
2023-03-24T05:24:57.527Z,13.09
2023-03-24T05:28:19.484Z,13.09
2023-03-24T05:31:45.412Z,13.14
2023-03-24T05:35:15.953Z,13.17
2023-03-24T05:38:44.566Z,13.19
2023-03-24T05:42:11.493Z,13.23
2023-03-24T05:45:33.657Z,13.30
2023-03-24T05:48:57.473Z,13.22
2023-03-24T05:52:34.735Z,13.24
2023-03-24T05:56:19.863Z,13.27
2023-03-24T06:00:00.353Z,13.14
2023-03-24T06:03:53.442Z,13.23
2023-03-24T06:07:16.392Z,13.19
2023-03-24T06:10:44.105Z,13.28
2023-03-24T06:14:09.054Z,13.43
2023-03-24T06:17:46.642Z,13.54
2023-03-24T06:21:32.440Z,13.68
2023-03-24T06:24:58.966Z,13.75
2023-03-24T06:28:22.516Z,13.76
2023-03-24T06:31:48.930Z,13.80
2023-03-24T06:35:11.527Z,13.84
2023-03-24T06:38:44.592Z,13.81
2023-03-24T06:42:11.115Z,13.80
2023-03-24T06:45:40.078Z,13.62
2023-03-24T06:49:05.206Z,13.55
2023-03-24T06:52:27.837Z,13.38
2023-03-24T06:55:51.626Z,13.34
2023-03-24T06:59:23.679Z,13.29
2023-03-24T07:03:03.371Z,13.25
2023-03-24T07:06:27.325Z,13.10
2023-03-24T07:09:56.507Z,12.98
2023-03-24T07:13:24.200Z,12.87
2023-03-24T07:17:02.316Z,12.87
2023-03-24T07:20:36.499Z,12.79
2023-03-24T07:24:12.256Z,12.79
2023-03-24T07:27:48.771Z,12.79
2023-03-24T07:31:12.269Z,12.99
2023-03-24T07:34:36.935Z,13.09
2023-03-24T07:38:05.784Z,13.13
2023-03-24T07:41:29.226Z,13.04
2023-03-24T07:44:55.018Z,12.47
2023-03-24T07:48:21.215Z,12.15
2023-03-24T07:51:46.472Z,11.86
2023-03-24T07:55:17.575Z,11.64
2023-03-24T07:58:52.385Z,11.71
2023-03-24T08:02:22.263Z,11.67
2023-03-24T08:05:55.402Z,11.62
2023-03-24T08:09:27.781Z,11.69
2023-03-24T08:12:51.995Z,11.66
2023-03-24T08:16:15.702Z,11.61
2023-03-24T08:19:52.022Z,11.56
2023-03-24T08:23:20.942Z,11.65
2023-03-24T08:26:48.525Z,11.63
2023-03-24T08:30:17.083Z,11.80
2023-03-24T08:33:41.849Z,11.87
2023-03-24T08:37:08.842Z,12.19
2023-03-24T08:40:31.704Z,12.26
2023-03-24T08:43:53.561Z,12.36
2023-03-24T08:47:15.533Z,12.51
2023-03-24T08:50:41.778Z,12.73
2023-03-24T08:54:04.223Z,13.13
2023-03-24T08:57:28.495Z,13.52
2023-03-24T09:00:52.786Z,13.61
2023-03-24T09:04:14.777Z,13.71
2023-03-24T09:07:43.524Z,14.24
2023-03-24T09:11:07.816Z,14.64
2023-03-24T09:14:29.699Z,15.47
2023-03-24T09:17:53.693Z,15.91
2023-03-24T09:21:16.948Z,15.91
2023-03-24T09:24:39.910Z,15.41
2023-03-24T09:28:04.386Z,15.46
2023-03-24T09:31:26.431Z,15.29
2023-03-24T09:34:49.319Z,15.01
2023-03-24T09:38:12.143Z,14.91
2023-03-24T09:41:35.164Z,14.65
2023-03-24T09:45:21.476Z,14.64
2023-03-24T09:48:57.500Z,14.74
2023-03-24T09:52:39.466Z,14.86
2023-03-24T09:56:17.708Z,14.89
2023-03-24T09:59:41.893Z,14.98
2023-03-24T10:03:22.882Z,15.17
2023-03-24T10:06:48.342Z,15.39
2023-03-24T10:10:37.965Z,15.15
2023-03-24T10:14:13.900Z,15.15
2023-03-24T10:18:38.055Z,15.54
2023-03-24T10:22:25.802Z,15.79
2023-03-24T10:26:21.691Z,15.94
2023-03-24T10:29:46.524Z,15.98
2023-03-24T10:33:12.259Z,16.20
2023-03-24T10:36:35.891Z,16.53
2023-03-24T10:40:00.597Z,16.49
2023-03-24T10:43:26.165Z,16.50
2023-03-24T10:46:55.418Z,16.62
2023-03-24T10:50:25.459Z,16.51
2023-03-24T10:53:49.825Z,16.37
2023-03-24T10:57:18.915Z,16.88
2023-03-24T11:00:45.264Z,16.63
2023-03-24T11:04:13.725Z,16.21
2023-03-24T11:07:42.229Z,16.06
2023-03-24T11:11:34.865Z,15.73
2023-03-24T11:15:22.453Z,15.94
2023-03-24T11:19:04.148Z,16.56
2023-03-24T11:22:27.164Z,16.72
2023-03-24T11:26:18.764Z,16.78
2023-03-24T11:29:41.701Z,16.95
2023-03-24T11:33:04.899Z,17.07
2023-03-24T11:36:44.038Z,17.36
2023-03-24T11:40:13.703Z,17.71
2023-03-24T11:43:35.735Z,18.01
2023-03-24T11:47:23.898Z,18.21
2023-03-24T11:50:47.673Z,18.16
2023-03-24T11:54:18.559Z,17.66
2023-03-24T11:58:01.816Z,17.34
2023-03-24T12:01:31.787Z,16.93
2023-03-24T12:05:36.701Z,16.61
2023-03-24T12:09:09.248Z,16.97
2023-03-24T12:13:18.961Z,17.53
2023-03-24T12:17:17.752Z,17.40
2023-03-24T12:21:21.494Z,17.29
2023-03-24T12:25:27.736Z,17.21
2023-03-24T12:29:02.952Z,16.96
2023-03-24T12:33:08.490Z,17.41
2023-03-24T12:36:53.855Z,17.56
2023-03-24T12:40:40.578Z,17.55
2023-03-24T12:44:30.372Z,17.30
2023-03-24T12:48:12.495Z,17.51
2023-03-24T12:52:00.468Z,17.50
2023-03-24T12:55:44.685Z,17.76
2023-03-24T12:59:32.053Z,17.48
2023-03-24T13:03:11.661Z,17.12
2023-03-24T13:07:01.166Z,16.98
2023-03-24T13:10:33.826Z,17.07
2023-03-24T13:13:59.785Z,17.20
2023-03-24T13:17:30.830Z,17.13
2023-03-24T13:20:59.695Z,17.62
2023-03-24T13:24:25.614Z,18.14
2023-03-24T13:27:57.004Z,18.11
2023-03-24T13:31:23.906Z,17.34
2023-03-24T13:35:37.443Z,15.98
2023-03-24T13:39:12.382Z,15.25
2023-03-24T13:42:45.409Z,15.04
2023-03-24T13:46:13.676Z,14.94
2023-03-24T13:49:36.386Z,14.70
2023-03-24T13:53:15.376Z,14.66
2023-03-24T13:57:01.426Z,14.84
2023-03-24T14:00:29.546Z,15.03
2023-03-24T14:04:19.320Z,15.07
2023-03-24T14:07:41.089Z,15.16
2023-03-24T14:11:03.090Z,15.25
2023-03-24T14:14:29.656Z,15.60
2023-03-24T14:17:56.560Z,15.54
2023-03-24T14:21:31.493Z,15.62
2023-03-24T14:25:14.234Z,15.98
2023-03-24T14:28:46.530Z,16.68
2023-03-24T14:32:20.545Z,17.21
2023-03-24T14:35:48.938Z,17.50
2023-03-24T14:39:39.077Z,17.22
2023-03-24T14:43:28.517Z,17.47
2023-03-24T14:46:51.808Z,17.27
2023-03-24T14:50:23.649Z,16.71
2023-03-24T14:53:58.558Z,16.40
2023-03-24T14:57:45.234Z,16.17
2023-03-24T15:01:09.210Z,16.50
2023-03-24T15:04:33.578Z,16.55
2023-03-24T15:08:13.628Z,16.53
2023-03-24T15:11:41.273Z,16.31
2023-03-24T15:15:04.574Z,15.84
2023-03-24T15:18:27.819Z,15.54
2023-03-24T15:22:02.810Z,15.19
2023-03-24T15:25:28.134Z,15.27
2023-03-24T15:29:05.033Z,15.15
2023-03-24T15:32:31.942Z,14.96
2023-03-24T15:36:00.820Z,14.87
2023-03-24T15:39:37.874Z,14.89
2023-03-24T15:43:04.033Z,14.85
2023-03-24T15:46:31.239Z,14.80
2023-03-24T15:49:58.205Z,14.62
2023-03-24T15:53:20.601Z,14.76
2023-03-24T15:56:42.457Z,14.90
2023-03-24T16:00:15.975Z,14.88
2023-03-24T16:03:37.806Z,14.91
2023-03-24T16:07:00.643Z,14.97
2023-03-24T16:10:32.362Z,15.13
2023-03-24T16:13:58.892Z,14.97
2023-03-24T16:17:28.940Z,15.05
2023-03-24T16:20:51.914Z,14.98
2023-03-24T16:24:16.119Z,14.96
2023-03-24T16:27:39.304Z,14.84
2023-03-24T16:31:06.623Z,15.03
2023-03-24T16:34:29.573Z,15.09
2023-03-24T16:37:52.575Z,15.16
2023-03-24T16:41:16.524Z,15.42
2023-03-24T16:44:39.303Z,15.40
2023-03-24T16:48:01.832Z,15.25
2023-03-24T16:51:27.045Z,14.89
2023-03-24T16:54:50.476Z,15.01
2023-03-24T16:58:19.134Z,14.79
2023-03-24T17:01:45.765Z,14.49
2023-03-24T17:05:27.549Z,14.46
2023-03-24T17:08:49.571Z,14.19
2023-03-24T17:12:11.462Z,13.76
2023-03-24T17:15:33.557Z,13.66
2023-03-24T17:18:56.012Z,13.46
2023-03-24T17:22:19.964Z,13.30
2023-03-24T17:25:45.827Z,13.50
2023-03-24T17:29:13.571Z,13.46
2023-03-24T17:32:35.497Z,13.29
2023-03-24T17:35:57.463Z,13.36
2023-03-24T17:39:21.478Z,13.17
2023-03-24T17:42:46.676Z,12.90
2023-03-24T17:46:13.276Z,12.70
2023-03-24T17:49:35.374Z,12.60
2023-03-24T17:52:57.228Z,12.43
2023-03-24T17:56:19.242Z,12.36
2023-03-24T17:59:41.225Z,12.28
2023-03-24T18:03:05.092Z,11.99
2023-03-24T18:06:27.532Z,11.82
2023-03-24T18:09:49.605Z,11.72
2023-03-24T18:13:12.389Z,11.54
2023-03-24T18:16:39.430Z,11.43
2023-03-24T18:20:09.817Z,11.32
2023-03-24T18:23:31.860Z,11.27
2023-03-24T18:26:53.661Z,11.27
2023-03-24T18:30:16.883Z,11.61
2023-03-24T18:33:39.259Z,11.78
2023-03-24T18:37:01.542Z,11.68
2023-03-24T18:40:24.452Z,11.60
2023-03-24T18:43:47.617Z,11.55
2023-03-24T18:47:15.746Z,11.69
2023-03-24T18:50:40.483Z,11.88
2023-03-24T18:54:02.348Z,12.05
2023-03-24T18:57:26.176Z,12.21
2023-03-24T19:00:53.393Z,12.37
2023-03-24T19:04:17.286Z,12.32
2023-03-24T19:07:39.161Z,12.44
2023-03-24T19:11:01.475Z,12.71
2023-03-24T19:14:25.169Z,12.71
2023-03-24T19:17:47.087Z,12.71
2023-03-24T19:21:10.039Z,12.62
2023-03-24T19:24:31.855Z,11.45
2023-03-24T19:27:53.637Z,10.91
2023-03-24T19:31:19.760Z,10.69
2023-03-24T19:34:41.767Z,10.37
2023-03-24T19:38:05.399Z,10.29
2023-03-24T19:41:27.509Z,10.22
2023-03-24T19:44:49.495Z,10.09
2023-03-24T19:48:12.309Z,9.87
2023-03-24T19:51:34.171Z,9.79
2023-03-24T19:55:01.264Z,9.60
2023-03-24T19:58:24.828Z,9.57
2023-03-24T20:01:50.628Z,9.57
2023-03-24T20:05:14.982Z,9.69
2023-03-24T20:08:39.120Z,9.71
2023-03-24T20:12:01.201Z,9.76
2023-03-24T20:15:28.983Z,9.66
2023-03-24T20:18:53.934Z,9.54
2023-03-24T20:22:16.823Z,9.19
2023-03-24T20:25:43.580Z,8.86
2023-03-24T20:29:09.539Z,8.78
2023-03-24T20:32:31.443Z,8.81
2023-03-24T20:35:56.304Z,8.98
2023-03-24T20:39:20.406Z,9.04
2023-03-24T20:42:51.135Z,8.82
2023-03-24T20:46:17.642Z,8.93
2023-03-24T20:49:40.571Z,9.09
2023-03-24T20:53:02.429Z,9.34
2023-03-24T20:56:24.933Z,9.46
2023-03-24T20:59:48.433Z,9.61
2023-03-24T21:03:18.199Z,9.81
2023-03-24T21:06:40.295Z,9.49
2023-03-24T21:10:06.963Z,9.44
2023-03-24T21:13:37.372Z,9.11
2023-03-24T21:17:00.024Z,9.12
2023-03-24T21:20:22.318Z,9.10
2023-03-24T21:23:44.234Z,9.07
2023-03-24T21:27:12.017Z,8.95
2023-03-24T21:30:36.747Z,8.96
2023-03-24T21:34:00.732Z,8.88
2023-03-24T21:37:25.420Z,8.91
2023-03-24T21:40:47.225Z,8.88
2023-03-24T21:44:10.426Z,8.69
2023-03-24T21:47:34.427Z,8.48
2023-03-24T21:50:57.359Z,8.27
2023-03-24T21:54:33.256Z,8.11
2023-03-24T21:57:55.362Z,8.07
2023-03-24T22:01:17.320Z,7.94
2023-03-24T22:04:41.599Z,8.00
2023-03-24T22:08:08.925Z,8.00
2023-03-24T22:11:42.412Z,8.23
2023-03-24T22:15:05.370Z,8.38
2023-03-24T22:18:31.709Z,8.45
2023-03-24T22:22:00.322Z,8.16
2023-03-24T22:25:24.251Z,7.98
2023-03-24T22:28:46.184Z,7.91
2023-03-24T22:32:15.468Z,7.86
2023-03-24T22:35:42.233Z,7.88
2023-03-24T22:39:04.139Z,7.90
2023-03-24T22:42:25.957Z,7.88
2023-03-24T22:45:50.021Z,7.85
2023-03-24T22:49:11.950Z,7.77
2023-03-24T22:52:33.933Z,7.84
2023-03-24T22:55:57.067Z,7.79
2023-03-24T22:59:19.114Z,7.89
2023-03-24T23:02:41.082Z,7.97
2023-03-24T23:06:03.821Z,8.17
2023-03-24T23:09:26.586Z,8.23
2023-03-24T23:12:51.780Z,8.28
2023-03-24T23:16:13.650Z,8.48
2023-03-24T23:19:47.877Z,8.61
2023-03-24T23:23:10.868Z,8.73
2023-03-24T23:26:32.872Z,8.74
2023-03-24T23:29:54.800Z,8.71
2023-03-24T23:33:16.769Z,8.71
2023-03-24T23:36:49.710Z,8.85
2023-03-24T23:40:14.952Z,8.88
2023-03-24T23:43:37.267Z,8.89
2023-03-24T23:47:00.129Z,8.92
2023-03-24T23:50:21.958Z,9.08
2023-03-24T23:53:43.768Z,9.12
2023-03-24T23:57:05.669Z,9.12
